Asahikawa Airport
RJEC : now visible

Airfield :











YOU CAN JOIN US ON...

 
LOGIN :

Register | Disclaimer

   EN    FR    IT 

 









Legend :    VFR   Marginal VFR   IFR   Intensive IFR   Very Intensive IFR
Visi :
Ceiling :
>= 8 km
>= 3000ft
5 to 8 km
1000 to 3000 ft
1500m to 5 km
500 to 1000 ft
800 to 1500m
200 to 500 ft
< 800m
< 200 ft
Symbols :   Thunderstorms  Fog  Heavy snow  Heavy precipitations  Wind > 20 kt






- Airport Elevation : 721 ft
- IATA code : AKJ


RJEC - Asahikawa

CURRENT METAR :
  • 121000Z 30003KT 280V360 9999 FEW020 BKN040 05/M00 Q1014

EXPIRED METARs :
  • 120900Z 28004KT 250V330 9999 FEW035 BKN045 05/00 Q1014
  • 120800Z VRB01KT 9999 FEW015 SCT035 BKN050 04/01 Q1013

TAF TAF RJEC
Valid from the 12 at 06:00 until the 13 at 12:00 UTC


120508Z 1206/1312 30010KT 9999 FEW020 SCT040
BECMG 1211/1213 17007KT
BECMG 1309/1312 18017KT



MET'MAP, your aeronautical weather chart ! - Copyright ORBIFLY December 2007 - Disclaimer

ORBIFLY MET'MAP TEAM :

Programming & Development : Alexandra Zaïnal
Concept & Development : Baudouin d'Aumeries
Co-Development & Prog : Marc-Olivier Méhu
Technical & hardware support : Manuel Goepfert

Contact : metmap@orbifly.com




SOURCES & CREDITS :

   NOAA       Earth
Advisory